createdAt,value
2018-09-12T00:00:24.600Z,37.98
2018-09-12T00:03:17.442Z,38.00
2018-09-12T00:06:27.077Z,37.27
2018-09-12T00:12:40.448Z,37.48
2018-09-12T00:15:15.589Z,37.29
2018-09-12T00:24:14.534Z,37.53
2018-09-12T00:27:22.372Z,37.75
2018-09-12T00:30:06.427Z,38.06
2018-09-12T00:32:52.374Z,38.73
2018-09-12T00:38:12.517Z,37.72
2018-09-12T00:40:50.253Z,37.95
2018-09-12T00:43:28.501Z,38.24
2018-09-12T00:46:07.639Z,37.31
2018-09-12T00:48:40.610Z,38.06
2018-09-12T00:51:14.358Z,38.15
2018-09-12T00:54:05.413Z,38.25
2018-09-12T00:56:43.029Z,38.18
2018-09-12T00:59:26.251Z,39.30
2018-09-12T01:02:13.807Z,39.27
2018-09-12T01:04:47.261Z,39.06
2018-09-12T01:07:27.350Z,38.85
2018-09-12T01:10:06.989Z,39.04
2018-09-12T01:12:41.204Z,38.64
2018-09-12T01:15:25.025Z,38.78
2018-09-12T01:18:06.788Z,38.21
2018-09-12T01:20:45.594Z,37.78
2018-09-12T01:26:48.641Z,38.41
2018-09-12T01:29:43.540Z,38.86
2018-09-12T01:32:21.963Z,39.07
2018-09-12T01:35:11.828Z,39.05
2018-09-12T01:38:03.964Z,39.81
2018-09-12T01:40:38.323Z,39.42
2018-09-12T01:43:20.116Z,39.16
2018-09-12T01:46:00.714Z,39.48
2018-09-12T01:48:42.981Z,39.83
2018-09-12T01:51:20.472Z,39.46
2018-09-12T01:53:54.672Z,40.14
2018-09-12T01:56:39.391Z,39.56
2018-09-12T01:59:13.423Z,39.71
2018-09-12T02:01:52.363Z,39.88
2018-09-12T02:07:38.944Z,40.04
2018-09-12T02:10:34.447Z,39.20
2018-09-12T02:13:10.575Z,39.59
2018-09-12T02:16:14.972Z,39.86
2018-09-12T02:18:55.498Z,40.50
2018-09-12T02:21:31.601Z,40.35
2018-09-12T02:24:11.477Z,40.20
2018-09-12T02:26:51.267Z,40.18
2018-09-12T02:29:28.832Z,40.50
2018-09-12T02:32:07.566Z,40.45
2018-09-12T02:34:52.699Z,41.58
2018-09-12T02:37:25.737Z,41.17
2018-09-12T02:40:07.137Z,41.60
2018-09-12T02:42:44.189Z,41.51
2018-09-12T02:45:18.645Z,41.70
2018-09-12T02:48:05.870Z,41.47
2018-09-12T02:56:45.028Z,41.86
2018-09-12T03:02:28.719Z,41.66
2018-09-12T03:05:10.319Z,42.44
2018-09-12T03:07:42.895Z,42.62
2018-09-12T03:10:18.981Z,42.28
2018-09-12T03:12:51.824Z,42.25
2018-09-12T03:15:33.658Z,42.41
2018-09-12T03:18:09.612Z,42.16
2018-09-12T03:20:49.673Z,42.73
2018-09-12T03:23:26.866Z,42.13
2018-09-12T03:26:01.468Z,41.56
2018-09-12T03:28:34.483Z,42.03
2018-09-12T03:31:15.541Z,42.33
2018-09-12T03:33:55.191Z,42.79
2018-09-12T03:36:27.125Z,42.23
2018-09-12T03:39:00.721Z,42.59
2018-09-12T03:41:46.546Z,43.12
2018-09-12T03:44:32.179Z,43.53
2018-09-12T03:47:11.298Z,43.80
2018-09-12T03:49:43.358Z,43.37
2018-09-12T03:52:43.491Z,42.40
2018-09-12T03:55:21.653Z,43.34
2018-09-12T03:57:51.730Z,43.36
2018-09-12T04:00:32.425Z,43.79
2018-09-12T04:03:03.478Z,43.85
2018-09-12T04:05:34.961Z,43.15
2018-09-12T04:08:05.401Z,44.03
2018-09-12T04:10:37.395Z,43.48
2018-09-12T04:13:15.154Z,43.64
2018-09-12T04:15:45.337Z,43.90
2018-09-12T04:18:16.760Z,43.33
2018-09-12T04:21:06.871Z,43.30
2018-09-12T04:23:37.889Z,43.58
2018-09-12T04:26:08.186Z,42.69
2018-09-12T04:28:37.589Z,43.34
2018-09-12T04:31:09.626Z,43.49
2018-09-12T04:33:40.619Z,44.08
2018-09-12T04:36:13.734Z,44.10
2018-09-12T04:38:46.389Z,43.79
2018-09-12T04:41:17.923Z,44.37
2018-09-12T04:43:49.060Z,43.61
2018-09-12T04:46:21.023Z,43.95
2018-09-12T04:48:57.336Z,44.42
2018-09-12T04:51:28.857Z,43.86
2018-09-12T04:53:59.515Z,43.70
2018-09-12T04:56:30.296Z,43.52
2018-09-12T04:59:00.600Z,43.91
2018-09-12T05:01:35.682Z,43.32
2018-09-12T05:04:07.895Z,43.22
2018-09-12T05:06:39.135Z,43.68
2018-09-12T05:09:11.514Z,44.01
2018-09-12T05:11:52.589Z,43.21
2018-09-12T05:14:22.784Z,43.67
2018-09-12T05:16:53.892Z,43.10
2018-09-12T05:19:24.252Z,43.27
2018-09-12T05:21:55.781Z,42.58
2018-09-12T05:24:28.094Z,42.89
2018-09-12T05:26:59.791Z,42.33
2018-09-12T05:29:31.076Z,41.87
2018-09-12T05:32:03.120Z,40.64
2018-09-12T05:34:42.484Z,40.20
2018-09-12T05:37:16.171Z,38.56
2018-09-12T05:39:48.576Z,37.88
2018-09-12T05:42:18.881Z,36.83
2018-09-12T05:44:57.708Z,35.86
2018-09-12T05:47:45.150Z,34.78
2018-09-12T05:50:17.640Z,33.82
2018-09-12T05:52:48.969Z,33.36
2018-09-12T05:55:20.403Z,32.94
2018-09-12T05:57:50.365Z,32.29
2018-09-12T06:00:23.525Z,32.25
2018-09-12T06:02:59.020Z,33.03
2018-09-12T06:05:29.110Z,32.80
2018-09-12T06:08:00.284Z,33.07
2018-09-12T06:10:32.489Z,31.94
2018-09-12T06:13:03.673Z,31.87
2018-09-12T06:15:33.084Z,31.32
2018-09-12T06:18:03.136Z,31.66
2018-09-12T06:20:36.495Z,31.99
2018-09-12T06:23:14.256Z,31.83
2018-09-12T06:25:47.022Z,31.34
2018-09-12T06:28:17.775Z,32.62
2018-09-12T06:30:49.911Z,32.07
2018-09-12T06:33:21.136Z,31.65
2018-09-12T06:35:51.268Z,31.09
2018-09-12T06:38:23.626Z,29.61
2018-09-12T06:40:54.372Z,29.98
2018-09-12T06:43:24.135Z,30.07
2018-09-12T06:45:54.000Z,29.89
2018-09-12T06:48:25.284Z,28.68
2018-09-12T06:50:56.543Z,28.35
2018-09-12T06:53:30.277Z,29.04
2018-09-12T06:56:01.403Z,27.90
2018-09-12T06:58:32.832Z,28.01
2018-09-12T07:01:05.459Z,27.96
2018-09-12T07:03:41.030Z,28.25
2018-09-12T07:06:14.469Z,27.85
2018-09-12T07:08:46.477Z,27.54
2018-09-12T07:11:17.769Z,27.38
2018-09-12T07:14:07.267Z,27.26
2018-09-12T07:16:45.441Z,27.08
2018-09-12T07:19:18.812Z,26.50
2018-09-12T07:21:50.805Z,26.73
2018-09-12T07:24:20.966Z,26.51
2018-09-12T07:26:50.393Z,26.78
2018-09-12T07:29:24.101Z,26.48
2018-09-12T07:31:58.624Z,27.47
2018-09-12T07:34:30.647Z,26.98
2018-09-12T07:37:02.201Z,27.13
2018-09-12T07:39:36.777Z,26.14
2018-09-12T07:42:10.624Z,26.10
2018-09-12T07:44:42.051Z,27.04
2018-09-12T07:47:12.961Z,26.80
2018-09-12T07:49:44.552Z,26.82
2018-09-12T07:52:18.161Z,26.38
2018-09-12T07:54:49.647Z,27.01
2018-09-12T07:57:22.523Z,26.67
2018-09-12T07:59:56.438Z,26.58
2018-09-12T08:02:27.910Z,26.81
2018-09-12T08:04:58.273Z,27.19
2018-09-12T08:07:27.805Z,26.39
2018-09-12T08:10:00.159Z,26.71
2018-09-12T08:12:31.579Z,26.15
2018-09-12T08:15:04.370Z,26.51
2018-09-12T08:17:39.868Z,26.20
2018-09-12T08:20:11.414Z,25.41
2018-09-12T08:22:44.965Z,25.72
2018-09-12T08:25:17.015Z,25.58
2018-09-12T08:27:51.129Z,25.48
2018-09-12T08:30:25.745Z,24.77
2018-09-12T08:32:57.650Z,24.04
2018-09-12T08:35:29.700Z,24.58
2018-09-12T08:38:02.378Z,23.83
2018-09-12T08:40:34.343Z,23.85
2018-09-12T08:43:07.102Z,24.22
2018-09-12T08:45:39.958Z,23.37
2018-09-12T08:48:12.935Z,24.40
2018-09-12T08:50:47.609Z,23.97
2018-09-12T08:53:19.569Z,23.35
2018-09-12T08:55:54.517Z,22.75
2018-09-12T08:58:25.548Z,22.06
2018-09-12T09:00:59.091Z,22.64
2018-09-12T09:03:31.064Z,21.96
2018-09-12T09:06:02.484Z,21.55
2018-09-12T09:08:32.921Z,21.41
2018-09-12T09:11:06.121Z,21.26
2018-09-12T09:13:37.061Z,21.52
2018-09-12T09:16:08.310Z,22.04
2018-09-12T09:18:40.762Z,21.29
2018-09-12T09:21:12.565Z,20.84
2018-09-12T09:23:44.591Z,22.00
2018-09-12T09:26:19.904Z,21.42
2018-09-12T09:28:54.225Z,21.62
2018-09-12T09:34:50.698Z,20.74
2018-09-12T09:37:22.505Z,21.03
2018-09-12T09:39:56.398Z,21.34
2018-09-12T09:42:30.351Z,21.16
2018-09-12T09:45:02.552Z,20.90
2018-09-12T09:47:36.007Z,20.43
2018-09-12T09:50:08.574Z,20.25
2018-09-12T09:52:42.072Z,20.20
2018-09-12T09:55:13.691Z,20.20
2018-09-12T09:57:45.950Z,20.25
2018-09-12T10:00:22.726Z,20.29
2018-09-12T10:02:59.538Z,20.47
2018-09-12T10:05:36.890Z,20.49
2018-09-12T10:08:12.265Z,20.37
2018-09-12T10:10:45.766Z,19.83
2018-09-12T10:13:17.635Z,19.78
2018-09-12T10:15:49.883Z,19.93
2018-09-12T10:18:22.228Z,19.13
2018-09-12T10:20:54.950Z,19.81
2018-09-12T10:23:27.400Z,19.86
2018-09-12T10:28:42.727Z,19.45
2018-09-12T10:31:15.809Z,18.78
2018-09-12T10:33:48.203Z,19.19
2018-09-12T10:36:20.162Z,19.38
2018-09-12T10:38:51.704Z,19.20
2018-09-12T10:41:23.499Z,19.01
2018-09-12T10:43:55.257Z,19.46
2018-09-12T10:46:27.810Z,19.38
2018-09-12T10:49:04.590Z,19.41
2018-09-12T10:51:38.673Z,19.08
2018-09-12T10:54:11.819Z,19.10
2018-09-12T10:56:44.821Z,19.39
2018-09-12T10:59:17.382Z,19.22
2018-09-12T11:01:51.171Z,18.74
2018-09-12T11:04:25.463Z,19.38
2018-09-12T11:06:57.212Z,18.93
2018-09-12T11:09:30.646Z,18.59
2018-09-12T11:12:03.282Z,18.95
2018-09-12T11:14:38.902Z,18.76
2018-09-12T11:17:10.216Z,18.47
2018-09-12T11:19:50.077Z,17.72
2018-09-12T11:22:40.416Z,17.62
2018-09-12T11:25:12.293Z,18.64
2018-09-12T11:27:46.490Z,18.96
2018-09-12T11:30:18.524Z,18.74
2018-09-12T11:32:50.460Z,18.97
2018-09-12T11:35:22.504Z,18.85
2018-09-12T11:37:53.687Z,18.16
2018-09-12T11:40:25.590Z,18.39
2018-09-12T11:42:56.545Z,17.89
2018-09-12T11:45:29.312Z,18.51
2018-09-12T11:48:00.581Z,18.23
2018-09-12T11:50:32.670Z,18.17
2018-09-12T11:53:04.274Z,18.12
2018-09-12T11:55:39.221Z,18.37
2018-09-12T11:58:11.871Z,18.80
2018-09-12T12:00:44.781Z,18.55
2018-09-12T12:03:16.591Z,18.50
2018-09-12T12:05:48.341Z,18.01
2018-09-12T12:08:20.262Z,18.39
2018-09-12T12:10:51.277Z,19.68
2018-09-12T12:13:25.028Z,19.65
2018-09-12T12:15:56.614Z,19.21
2018-09-12T12:18:28.959Z,19.83
2018-09-12T12:21:02.713Z,19.15
2018-09-12T12:23:36.154Z,18.26
2018-09-12T12:26:10.117Z,18.48
2018-09-12T12:28:41.301Z,18.79
2018-09-12T12:31:12.693Z,18.11
2018-09-12T12:33:43.848Z,17.55
2018-09-12T12:36:19.296Z,18.10
2018-09-12T12:38:53.604Z,18.34
2018-09-12T12:41:26.568Z,18.18
2018-09-12T12:44:05.216Z,17.15
2018-09-12T12:46:37.317Z,16.25
2018-09-12T12:49:10.553Z,17.00
2018-09-12T12:51:43.932Z,16.34
2018-09-12T12:54:16.629Z,16.37
2018-09-12T12:56:49.211Z,17.09
2018-09-12T12:59:22.535Z,16.89
2018-09-12T13:01:58.457Z,16.69
2018-09-12T13:04:30.367Z,16.88
2018-09-12T13:07:01.716Z,16.19
2018-09-12T13:10:19.847Z,16.78
2018-09-12T13:13:05.022Z,16.78
2018-09-12T13:15:44.440Z,16.57
2018-09-12T13:18:26.893Z,16.85
2018-09-12T13:21:17.222Z,15.32
2018-09-12T13:24:08.246Z,15.63
2018-09-12T13:26:56.782Z,16.16
2018-09-12T13:29:39.620Z,16.48
2018-09-12T13:32:15.031Z,16.30
2018-09-12T13:34:57.390Z,15.93
2018-09-12T13:37:39.936Z,15.22
2018-09-12T13:40:18.742Z,15.28
2018-09-12T13:42:56.334Z,15.49
2018-09-12T13:45:45.699Z,15.16
2018-09-12T13:48:20.403Z,15.79
2018-09-12T13:50:54.598Z,15.55
2018-09-12T13:53:37.543Z,15.38
2018-09-12T13:56:15.208Z,15.08
2018-09-12T13:58:51.874Z,15.00
2018-09-12T14:01:33.941Z,15.59
2018-09-12T14:04:20.942Z,14.95
2018-09-12T14:07:03.817Z,15.70
2018-09-12T14:09:45.235Z,15.38
2018-09-12T14:12:28.304Z,16.00
2018-09-12T14:15:02.598Z,16.07
2018-09-12T14:17:35.479Z,15.91
2018-09-12T14:20:08.979Z,15.36
2018-09-12T14:22:49.354Z,15.10
2018-09-12T14:25:44.692Z,15.13
2018-09-12T14:28:24.980Z,14.21
2018-09-12T14:31:02.400Z,14.28
2018-09-12T14:33:44.956Z,14.26
2018-09-12T14:39:38.132Z,14.63
2018-09-12T14:42:22.837Z,15.11
2018-09-12T14:45:11.395Z,15.17
2018-09-12T14:47:46.313Z,15.58
2018-09-12T14:50:19.506Z,15.37
2018-09-12T14:52:55.654Z,14.94
2018-09-12T14:55:31.298Z,15.35
2018-09-12T14:58:12.953Z,14.35
2018-09-12T15:00:57.485Z,14.00
2018-09-12T15:03:39.506Z,14.54
2018-09-12T15:06:12.614Z,14.95
2018-09-12T15:08:51.350Z,14.11
2018-09-12T15:11:29.538Z,14.54
2018-09-12T15:14:09.071Z,14.63
2018-09-12T15:16:46.735Z,14.42
2018-09-12T15:19:21.308Z,14.58
2018-09-12T15:21:56.661Z,15.25
2018-09-12T15:27:25.220Z,14.28
2018-09-12T15:30:00.108Z,14.85
2018-09-12T15:32:38.920Z,15.07
2018-09-12T15:35:28.521Z,15.37
2018-09-12T15:38:02.025Z,15.06
2018-09-12T15:40:38.314Z,15.93
2018-09-12T15:43:17.358Z,16.25
2018-09-12T15:46:11.243Z,16.04
2018-09-12T15:49:04.688Z,15.41
2018-09-12T15:51:39.893Z,15.58
2018-09-12T15:54:12.310Z,16.16
2018-09-12T15:57:01.691Z,15.90
2018-09-12T16:01:16.243Z,15.95
2018-09-12T16:03:59.701Z,15.73
2018-09-12T16:06:35.949Z,15.69
2018-09-12T16:09:12.354Z,16.57
2018-09-12T16:11:50.717Z,16.16
2018-09-12T16:14:29.695Z,16.19
2018-09-12T16:17:05.914Z,16.15
2018-09-12T16:19:44.471Z,16.20
2018-09-12T16:22:22.044Z,15.81
2018-09-12T16:24:59.567Z,16.40
2018-09-12T16:27:40.364Z,16.34
2018-09-12T16:30:27.492Z,16.40
2018-09-12T16:33:04.765Z,16.07
2018-09-12T16:36:29.624Z,16.15
2018-09-12T16:39:18.185Z,16.96
2018-09-12T16:42:07.514Z,16.71
2018-09-12T16:44:42.693Z,16.96
2018-09-12T16:47:22.096Z,17.23
2018-09-12T16:50:07.214Z,17.45
2018-09-12T16:52:48.626Z,17.46
2018-09-12T16:55:35.649Z,17.75
2018-09-12T16:58:14.879Z,17.73
2018-09-12T17:01:03.028Z,17.32
2018-09-12T17:03:37.730Z,18.32
2018-09-12T17:06:16.372Z,18.25
2018-09-12T17:08:50.912Z,19.04
2018-09-12T17:11:26.325Z,19.11
2018-09-12T17:14:08.732Z,18.45
2018-09-12T17:16:56.995Z,19.17
2018-09-12T17:19:44.533Z,19.30
2018-09-12T17:22:31.433Z,19.16
2018-09-12T17:25:08.094Z,20.15
2018-09-12T17:27:46.453Z,20.17
2018-09-12T17:30:29.733Z,19.83
2018-09-12T17:33:16.615Z,19.78
2018-09-12T17:36:00.599Z,19.96
2018-09-12T17:38:39.713Z,19.95
2018-09-12T17:41:22.623Z,20.09
2018-09-12T17:44:03.965Z,20.69
2018-09-12T17:46:54.286Z,20.67
2018-09-12T17:49:35.396Z,20.81
2018-09-12T17:52:17.294Z,20.58
2018-09-12T17:54:59.930Z,21.31
2018-09-12T17:57:39.946Z,21.61
2018-09-12T18:03:12.581Z,22.29
2018-09-12T18:05:50.514Z,21.87
2018-09-12T18:08:33.426Z,22.74
2018-09-12T18:11:06.557Z,22.17
2018-09-12T18:13:44.024Z,22.91
2018-09-12T18:16:26.753Z,23.39
2018-09-12T18:19:07.323Z,23.09
2018-09-12T18:21:39.599Z,23.46
2018-09-12T18:24:17.816Z,24.09
2018-09-12T18:26:57.727Z,24.26
2018-09-12T18:29:38.971Z,24.21
2018-09-12T18:32:24.847Z,25.19
2018-09-12T18:35:09.508Z,25.10
2018-09-12T18:37:52.296Z,24.87
2018-09-12T18:40:31.462Z,25.54
2018-09-12T18:43:09.558Z,25.92
2018-09-12T18:46:04.401Z,26.43
2018-09-12T18:48:56.085Z,26.80
2018-09-12T18:51:41.443Z,26.32
2018-09-12T18:54:20.085Z,26.96
2018-09-12T18:57:06.389Z,26.87
2018-09-12T18:59:40.725Z,27.23
2018-09-12T19:02:18.015Z,27.29
2018-09-12T19:04:58.695Z,26.85
2018-09-12T19:07:41.040Z,27.50
2018-09-12T19:10:12.661Z,27.80
2018-09-12T19:12:50.448Z,27.72
2018-09-12T19:15:26.633Z,27.68
2018-09-12T19:18:00.561Z,28.92
2018-09-12T19:20:44.625Z,28.77
2018-09-12T19:23:21.504Z,28.84
2018-09-12T19:26:01.605Z,29.21
2018-09-12T19:28:46.153Z,28.85
2018-09-12T19:31:47.751Z,29.21
2018-09-12T19:34:32.507Z,29.38
2018-09-12T19:38:01.600Z,29.05
2018-09-12T19:41:19.713Z,29.16
2018-09-12T19:43:50.418Z,29.25
2018-09-12T19:46:20.771Z,29.03
2018-09-12T19:48:51.039Z,28.91
2018-09-12T19:51:23.541Z,28.98
2018-09-12T19:53:54.379Z,29.56
2018-09-12T19:56:26.533Z,29.62
2018-09-12T19:59:02.526Z,29.60
2018-09-12T20:01:36.466Z,29.38
2018-09-12T20:04:06.793Z,29.69
2018-09-12T20:06:37.268Z,29.50
2018-09-12T20:09:11.229Z,30.04
2018-09-12T20:11:41.851Z,29.95
2018-09-12T20:14:12.175Z,30.72
2018-09-12T20:16:47.880Z,30.17
2018-09-12T20:19:18.158Z,31.13
2018-09-12T20:21:51.016Z,31.19
2018-09-12T20:24:21.260Z,31.83
2018-09-12T20:26:53.337Z,31.72
2018-09-12T20:29:27.458Z,32.16
2018-09-12T20:31:59.580Z,32.77
2018-09-12T20:34:31.111Z,33.10
2018-09-12T20:37:04.216Z,33.64
2018-09-12T20:39:39.941Z,34.28
2018-09-12T20:42:10.328Z,34.92
2018-09-12T20:44:40.801Z,35.23
2018-09-12T20:47:11.892Z,35.83
2018-09-12T20:49:44.281Z,35.52
2018-09-12T20:52:14.806Z,35.82
2018-09-12T20:54:44.838Z,36.37
2018-09-12T20:57:14.770Z,36.09
2018-09-12T20:59:45.320Z,36.69
2018-09-12T21:02:18.594Z,37.37
2018-09-12T21:04:48.214Z,36.93
2018-09-12T21:07:18.293Z,37.86
2018-09-12T21:09:48.456Z,38.05
2018-09-12T21:12:19.974Z,37.90
2018-09-12T21:14:50.444Z,38.54
2018-09-12T21:17:21.841Z,38.18
2018-09-12T21:19:53.556Z,37.99
2018-09-12T21:22:24.681Z,38.67
2018-09-12T21:24:55.288Z,38.39
2018-09-12T21:27:30.209Z,37.77
2018-09-12T21:30:00.492Z,38.83
2018-09-12T21:32:30.580Z,38.24
2018-09-12T21:35:02.087Z,38.59
2018-09-12T21:37:32.424Z,39.37
2018-09-12T21:40:01.890Z,39.53
2018-09-12T21:42:34.107Z,39.59
2018-09-12T21:45:03.580Z,39.96
2018-09-12T21:47:33.013Z,39.97
2018-09-12T21:50:04.556Z,40.23
2018-09-12T21:52:34.063Z,40.24
2018-09-12T21:55:03.473Z,40.06
2018-09-12T21:57:39.369Z,40.21
2018-09-12T22:00:14.796Z,41.03
2018-09-12T22:02:45.395Z,40.59
2018-09-12T22:05:14.812Z,40.49
2018-09-12T22:07:44.718Z,41.40
2018-09-12T22:10:14.155Z,40.81
2018-09-12T22:12:44.247Z,41.26
2018-09-12T22:15:17.834Z,40.79
2018-09-12T22:17:47.844Z,42.18
2018-09-12T22:20:17.319Z,41.48
2018-09-12T22:22:48.632Z,42.30
2018-09-12T22:25:18.036Z,41.77
2018-09-12T22:27:48.414Z,42.39
2018-09-12T22:30:18.677Z,42.56
2018-09-12T22:32:48.429Z,42.54
2018-09-12T22:35:17.860Z,42.10
2018-09-12T22:37:47.262Z,42.22
2018-09-12T22:40:16.853Z,42.80
2018-09-12T22:42:46.288Z,42.28
2018-09-12T22:45:16.349Z,42.88
2018-09-12T22:47:46.091Z,42.91
2018-09-12T22:50:17.762Z,43.15
2018-09-12T22:52:52.090Z,42.94
2018-09-12T22:55:21.692Z,42.78
2018-09-12T22:57:52.033Z,42.78
2018-09-12T23:00:23.719Z,42.84
2018-09-12T23:02:54.774Z,43.69
2018-09-12T23:05:24.221Z,42.77
2018-09-12T23:07:53.632Z,42.93
2018-09-12T23:10:23.088Z,43.52
2018-09-12T23:12:53.312Z,43.27
2018-09-12T23:15:24.935Z,43.15
2018-09-12T23:17:54.305Z,43.79
2018-09-12T23:20:24.269Z,43.01
2018-09-12T23:22:55.321Z,43.29
2018-09-12T23:25:24.738Z,43.73
2018-09-12T23:27:54.116Z,43.61
2018-09-12T23:30:25.780Z,43.18
2018-09-12T23:32:55.188Z,44.07
2018-09-12T23:35:24.586Z,43.96
2018-09-12T23:37:54.715Z,43.49
2018-09-12T23:40:24.992Z,43.58
2018-09-12T23:42:54.384Z,43.51
2018-09-12T23:45:24.946Z,44.24
2018-09-12T23:47:54.308Z,43.96
2018-09-12T23:50:23.661Z,44.54
2018-09-12T23:52:53.024Z,44.41
2018-09-12T23:55:22.920Z,44.33
2018-09-12T23:57:52.531Z,44.71
